Time;durP1;ratioP1;P1;durP2;ratioP2;P2;SDS_P1;SDS_P2;PMS_P1;PMS_P2;Temp;Humidity;BMP_temperature;BMP_pressure;BME280_temperature;BME280_humidity;BME280_pressure;Samples;Min_cycle;Max_cycle;Signal;HPM_P1;HPM_P2
2021/05/02 00:01:22;;;;;;;20.27;15.87;;;;;;;9.01;100.00;99983.22;20859314;28;20217;-71
2021/05/02 00:11:22;;;;;;;17.37;15.57;;;;;;;8.99;100.00;99957.66;20867411;28;20227;-61
2021/05/02 00:21:24;;;;;;;15.77;14.13;;;;;;;8.92;100.00;99935.91;20863944;28;20221;-60
2021/05/02 00:31:25;;;;;;;14.53;13.03;;;;;;;8.91;100.00;99952.81;20857224;28;20794;-59
2021/05/02 00:41:32;;;;;;;16.57;14.87;;;;;;;8.91;100.00;99936.84;20868195;28;20312;-61
2021/05/02 00:51:38;;;;;;;14.20;12.77;;;;;;;8.94;100.00;99931.31;20822172;28;20223;-63
2021/05/02 01:01:42;;;;;;;15.10;13.23;;;;;;;8.94;100.00;99914.50;20813651;28;20217;-60
2021/05/02 01:21:41;;;;;;;19.03;15.40;;;;;;;8.93;100.00;99924.31;20880808;27;20638;-60
2021/05/02 01:31:43;;;;;;;17.77;15.57;;;;;;;8.89;100.00;99900.66;20855784;28;20218;-63
2021/05/02 01:41:44;;;;;;;16.97;15.17;;;;;;;8.82;100.00;99876.22;20868599;28;20323;-60
2021/05/02 02:01:44;;;;;;;12.93;11.67;;;;;;;8.74;100.00;99837.78;20785505;28;20652;-61
2021/05/02 02:11:45;;;;;;;17.00;15.20;;;;;;;8.56;100.00;99826.53;20788806;28;20304;-61
2021/05/02 02:21:48;;;;;;;13.90;12.50;;;;;;;8.28;100.00;99793.66;20770193;28;20725;-60
2021/05/02 02:31:50;;;;;;;13.83;12.43;;;;;;;8.15;100.00;99782.09;20789020;28;20476;-62
2021/05/02 02:41:51;;;;;;;13.67;12.27;;;;;;;8.02;100.00;99762.56;20768050;28;20235;-62
2021/05/02 02:51:52;;;;;;;18.23;15.80;;;;;;;8.15;100.00;99733.41;20769972;28;20244;-60
2021/05/02 03:01:56;;;;;;;18.13;15.03;;;;;;;8.29;100.00;99717.44;20769962;28;20685;-65
2021/05/02 03:11:56;;;;;;;16.23;14.60;;;;;;;8.41;100.00;99702.53;20733521;28;20262;-62
2021/05/02 03:22:05;;;;;;;18.60;16.07;;;;;;;8.48;100.00;99693.19;20719406;28;20304;-68
2021/05/02 04:02:04;;;;;;;23.73;21.33;;;;;;;8.63;100.00;99660.28;20957816;27;20901;-61
2021/05/02 04:12:05;;;;;;;26.87;23.97;;;;;;;8.74;100.00;99652.41;20916211;28;20402;-60
2021/05/02 04:22:07;;;;;;;23.37;20.80;;;;;;;8.83;100.00;99651.78;20949567;28;20232;-61
2021/05/02 04:32:07;;;;;;;27.07;23.57;;;;;;;8.88;100.00;99633.72;20866026;28;20895;-69
2021/05/02 04:42:08;;;;;;;23.93;21.57;;;;;;;9.07;100.00;99605.84;20851744;28;20228;-70
2021/05/02 04:52:08;;;;;;;30.53;27.23;;;;;;;9.18;100.00;99577.50;20840290;28;20235;-61
2021/05/02 05:02:11;;;;;;;27.80;24.97;;;;;;;9.27;100.00;99584.00;20861185;28;20218;-62
2021/05/02 05:12:12;;;;;;;31.00;27.80;;;;;;;9.42;100.00;99585.56;20814821;28;20272;-62
2021/05/02 05:22:12;;;;;;;28.07;25.07;;;;;;;9.71;100.00;99541.72;20767711;28;20313;-60
2021/05/02 05:32:12;;;;;;;26.53;23.83;;;;;;;9.83;100.00;99541.78;20703171;28;20262;-61
2021/05/02 05:42:13;;;;;;;25.70;23.13;;;;;;;9.95;100.00;99524.88;20692940;28;20223;-64
2021/05/02 05:52:13;;;;;;;26.17;23.57;;;;;;;10.06;100.00;99512.44;20727234;28;20232;-60
2021/05/02 06:02:14;;;;;;;20.60;18.67;;;;;;;10.04;100.00;99493.06;20727994;28;20223;-59
2021/05/02 06:12:14;;;;;;;21.67;19.47;;;;;;;9.96;100.00;99466.13;20738004;28;20235;-60
2021/05/02 06:22:15;;;;;;;24.30;21.80;;;;;;;9.92;100.00;99418.50;20736695;28;20220;-61
2021/05/02 06:32:15;;;;;;;21.43;19.23;;;;;;;10.22;100.00;99405.53;20734525;28;20228;-60
2021/05/02 06:42:16;;;;;;;24.23;21.63;;;;;;;10.28;99.98;99373.06;20724778;28;20646;-60
2021/05/02 06:52:16;;;;;;;18.00;16.30;;;;;;;10.49;98.98;99343.03;20685741;28;20225;-60
2021/05/02 07:02:17;;;;;;;16.50;14.90;;;;;;;10.48;98.28;99326.16;20723549;28;20471;-65
2021/05/02 07:12:20;;;;;;;17.08;15.38;;;;;;;10.54;97.82;99298.16;20665309;28;20244;-69
2021/05/02 07:22:22;;;;;;;14.67;13.17;;;;;;;10.52;98.90;99258.25;20699888;28;20232;-67
2021/05/02 07:32:24;;;;;;;17.53;15.23;;;;;;;10.28;100.00;99218.41;20696339;28;20236;-69
2021/05/02 07:42:26;;;;;;;15.80;14.17;;;;;;;9.70;100.00;99180.38;20660641;28;20298;-60
2021/05/02 07:52:26;;;;;;;19.60;16.47;;;;;;;9.65;100.00;99171.94;20673821;28;20231;-64
2021/05/02 08:02:27;;;;;;;20.47;17.70;;;;;;;9.69;100.00;99141.41;20682777;28;20926;-62
2021/05/02 08:12:28;;;;;;;19.00;17.00;;;;;;;9.75;100.00;99130.28;20687639;28;20227;-70
2021/05/02 08:22:28;;;;;;;21.33;19.10;;;;;;;9.56;100.00;99108.72;20698385;28;20234;-57
2021/05/02 08:32:29;;;;;;;28.17;25.13;;;;;;;9.43;100.00;99110.66;20674950;28;20234;-54
2021/05/02 08:42:29;;;;;;;25.30;22.70;;;;;;;9.30;100.00;99104.59;20696234;28;20234;-53
2021/05/02 08:52:30;;;;;;;33.73;28.97;;;;;;;9.23;100.00;99100.72;20814798;28;20679;-53
2021/05/02 09:02:31;;;;;;;39.83;31.17;;;;;;;9.22;100.00;99099.88;20756777;28;20233;-53
2021/05/02 09:12:32;;;;;;;40.90;32.73;;;;;;;9.31;100.00;99059.22;20765099;28;20241;-54
2021/05/02 09:22:33;;;;;;;57.37;44.23;;;;;;;9.29;100.00;99082.47;20759308;28;20309;-62
2021/05/02 09:32:48;;;;;;;63.00;41.37;;;;;;;9.29;100.00;99033.72;20770925;28;20234;-67
2021/05/02 09:42:49;;;;;;;65.13;40.53;;;;;;;9.18;100.00;99007.06;20791715;28;20244;-70
2021/05/02 09:52:53;;;;;;;61.67;36.37;;;;;;;9.24;100.00;98969.34;20738644;28;20422;-63
2021/05/02 10:02:55;;;;;;;74.70;39.80;;;;;;;9.20;100.00;98941.28;20774735;28;20234;-73
2021/05/02 10:12:56;;;;;;;59.00;33.70;;;;;;;9.15;100.00;98901.75;20787888;28;20269;-62
2021/05/02 10:22:57;;;;;;;69.47;37.03;;;;;;;9.11;100.00;98899.44;20787799;28;20256;-61
2021/05/02 10:33:05;;;;;;;52.37;31.70;;;;;;;9.23;100.00;98909.94;20724478;28;20229;-57
2021/05/02 10:43:10;;;;;;;88.23;40.90;;;;;;;9.32;100.00;98881.72;20742457;28;20321;-70
2021/05/02 10:53:18;;;;;;;91.60;43.60;;;;;;;9.41;100.00;98864.16;20850144;28;20352;-56
2021/05/02 11:03:37;;;;;;;83.10;41.23;;;;;;;9.45;100.00;98839.81;20876138;28;20234;-58
2021/05/02 11:13:37;;;;;;;75.83;37.90;;;;;;;9.46;100.00;98812.22;20880221;28;20276;-61
2021/05/02 11:23:58;;;;;;;76.67;38.83;;;;;;;9.50;100.00;98776.38;20787226;28;20223;-63
2021/05/02 11:34:05;;;;;;;87.47;41.97;;;;;;;9.56;100.00;98762.53;20802794;28;20254;-54
2021/05/02 11:44:10;;;;;;;86.00;44.57;;;;;;;9.62;100.00;98740.72;20772532;28;20235;-56
2021/05/02 11:54:12;;;;;;;137.27;54.30;;;;;;;9.73;100.00;98706.03;20818506;28;20830;-59
2021/05/02 12:04:18;;;;;;;71.50;37.17;;;;;;;9.87;100.00;98703.97;20840367;28;20219;-66
2021/05/02 12:34:42;;;;;;;93.33;42.67;;;;;;;10.59;100.00;98643.31;21051379;27;20607;-54
2021/05/02 12:44:52;;;;;;;87.40;40.60;;;;;;;10.58;100.00;98630.94;21042108;27;20228;-55
2021/05/02 12:54:53;;;;;;;111.70;48.33;;;;;;;10.70;100.00;98615.66;21111034;27;20785;-55
2021/05/02 13:04:55;;;;;;;121.07;48.80;;;;;;;10.80;100.00;98616.47;21114686;27;20229;-63
2021/05/02 13:15:07;;;;;;;108.10;45.57;;;;;;;10.94;100.00;98592.03;21101657;27;20221;-62
2021/05/02 13:25:10;;;;;;;122.03;49.73;;;;;;;11.28;100.00;98588.84;21113641;27;20341;-57
2021/05/02 13:35:10;;;;;;;89.73;43.43;;;;;;;12.70;100.00;98589.16;21062937;27;20224;-60
2021/05/02 13:45:12;;;;;;;104.97;51.63;;;;;;;12.98;100.00;98591.59;21083652;27;20221;-62
2021/05/02 13:55:13;;;;;;;64.97;39.97;;;;;;;12.59;100.00;98588.41;21125458;27;20225;-62
2021/05/02 14:05:15;;;;;;;39.77;27.83;;;;;;;11.76;100.00;98589.53;21066525;27;20761;-57
2021/05/02 14:15:16;;;;;;;32.80;23.67;;;;;;;11.34;100.00;98615.00;21074072;27;20238;-57
2021/05/02 14:25:17;;;;;;;26.70;20.35;;;;;;;11.28;100.00;98616.41;21048178;28;20241;-67
2021/05/02 14:35:22;;;;;;;27.63;20.13;;;;;;;11.04;100.00;98624.88;21043857;27;20217;-58
2021/05/02 14:45:24;;;;;;;20.27;14.33;;;;;;;10.82;100.00;98635.88;21063197;27;20437;-66
2021/05/02 14:55:24;;;;;;;18.83;14.03;;;;;;;10.64;100.00;98621.53;21052925;28;20316;-57
2021/05/02 15:05:25;;;;;;;18.13;13.30;;;;;;;10.51;100.00;98612.97;21034125;28;20214;-59
2021/05/02 15:15:25;;;;;;;16.47;12.13;;;;;;;10.44;100.00;98608.19;21054277;28;20218;-61
2021/05/02 15:25:26;;;;;;;14.83;11.97;;;;;;;10.33;100.00;98600.34;21089994;27;20224;-65
2021/05/02 15:35:27;;;;;;;13.60;11.27;;;;;;;10.26;100.00;98591.22;21047344;27;20225;-58
2021/05/02 15:45:27;;;;;;;12.77;10.60;;;;;;;10.15;100.00;98615.28;21061052;27;20236;-66
2021/05/02 15:55:28;;;;;;;19.60;14.37;;;;;;;9.95;100.00;98618.88;21109812;27;20737;-62
2021/05/02 16:05:31;;;;;;;14.60;11.65;;;;;;;9.61;100.00;98621.88;21059474;27;20467;-65
2021/05/02 16:15:31;;;;;;;9.90;7.97;;;;;;;9.20;100.00;98649.38;21036197;27;20320;-58
2021/05/02 16:25:33;;;;;;;6.90;6.20;;;;;;;8.90;100.00;98679.44;21048463;28;20562;-59
2021/05/02 16:35:34;;;;;;;3.23;3.03;;;;;;;8.44;100.00;98697.50;21043793;28;20462;-59
2021/05/02 16:45:34;;;;;;;5.50;5.00;;;;;;;8.25;100.00;98740.59;21048425;28;20224;-64
2021/05/02 16:55:35;;;;;;;3.10;2.80;;;;;;;7.86;100.00;98761.38;21025278;28;20287;-63
2021/05/02 17:05:36;;;;;;;4.10;3.80;;;;;;;7.64;100.00;98802.97;21053472;28;20587;-65
2021/05/02 17:15:37;;;;;;;3.13;2.83;;;;;;;7.32;100.00;98838.13;21047850;28;20227;-60
2021/05/02 17:25:37;;;;;;;3.35;3.05;;;;;;;7.11;100.00;98855.63;21057512;28;20226;-62
2021/05/02 17:35:38;;;;;;;4.27;3.97;;;;;;;6.91;100.00;98878.28;21056495;28;20357;-64
2021/05/02 17:45:39;;;;;;;3.60;3.30;;;;;;;6.63;100.00;98928.94;21051711;28;20312;-60
2021/05/02 17:55:40;;;;;;;3.73;3.40;;;;;;;6.38;100.00;98951.00;21060345;28;20305;-63
2021/05/02 18:05:41;;;;;;;2.93;2.63;;;;;;;5.97;100.00;99002.31;21038499;28;20222;-67
2021/05/02 18:15:41;;;;;;;2.63;2.43;;;;;;;5.54;100.00;99085.41;21059332;28;20233;-61
2021/05/02 18:25:42;;;;;;;1.63;1.47;;;;;;;5.12;100.00;99129.44;21035509;28;20695;-59
2021/05/02 18:35:42;;;;;;;2.47;1.88;;;;;;;4.84;100.00;99169.03;21055092;28;20460;-61
2021/05/02 18:45:43;;;;;;;1.60;1.50;;;;;;;4.42;100.00;99202.31;21039737;28;20735;-60
2021/05/02 18:55:43;;;;;;;2.13;1.93;;;;;;;4.27;100.00;99240.16;21049745;28;20235;-62
2021/05/02 19:05:44;;;;;;;1.80;1.70;;;;;;;3.90;100.00;99275.63;21047221;28;20462;-62
2021/05/02 19:15:45;;;;;;;2.03;1.80;;;;;;;3.75;100.00;99327.41;21040407;28;20658;-64
2021/05/02 19:25:47;;;;;;;1.10;1.10;;;;;;;3.47;100.00;99319.25;21052927;28;20240;-61
2021/05/02 19:35:47;;;;;;;4.10;2.33;;;;;;;3.34;100.00;99365.63;21031684;28;20229;-61
2021/05/02 19:45:48;;;;;;;1.27;1.17;;;;;;;3.23;100.00;99390.75;21050303;28;20529;-67
2021/05/02 19:55:48;;;;;;;1.13;1.13;;;;;;;3.22;100.00;99412.75;21030726;28;20770;-60
2021/05/02 20:05:49;;;;;;;1.80;1.65;;;;;;;3.28;100.00;99389.63;21049620;28;20214;-59
2021/05/02 20:15:49;;;;;;;1.37;1.23;;;;;;;3.24;100.00;99431.13;21032614;28;20214;-60
2021/05/02 20:25:50;;;;;;;2.20;2.00;;;;;;;3.32;100.00;99449.22;21045667;28;20226;-59
2021/05/02 20:35:50;;;;;;;2.07;1.80;;;;;;;3.33;100.00;99457.06;21040816;28;20487;-61
2021/05/02 20:55:46;;;;;;;1.70;1.60;;;;;;;3.38;100.00;99513.03;21041878;27;20966;-65
2021/05/02 21:05:46;;;;;;;1.80;1.70;;;;;;;3.43;100.00;99526.88;21020073;28;20271;-68
2021/05/02 21:15:47;;;;;;;2.00;1.80;;;;;;;3.54;100.00;99545.66;21012006;28;20264;-68
2021/05/02 21:25:48;;;;;;;1.97;1.87;;;;;;;3.60;100.00;99560.38;21017657;28;20225;-59
2021/05/02 21:35:49;;;;;;;1.87;1.77;;;;;;;3.57;100.00;99597.44;21037263;28;20456;-60
2021/05/02 21:45:50;;;;;;;2.20;2.10;;;;;;;3.46;100.00;99621.66;21019756;28;20555;-62
2021/05/02 22:05:51;;;;;;;2.13;1.93;;;;;;;3.47;100.00;99670.00;21024680;27;20558;-62
2021/05/02 22:25:50;;;;;;;3.10;2.90;;;;;;;3.64;100.00;99693.81;20957971;27;20921;-60
2021/05/02 22:35:51;;;;;;;4.00;3.70;;;;;;;3.75;100.00;99695.94;20936447;28;20250;-63
2021/05/02 22:45:53;;;;;;;4.60;4.20;;;;;;;3.90;100.00;99669.69;20954294;28;20223;-67
2021/05/02 22:55:53;;;;;;;4.60;4.20;;;;;;;4.03;100.00;99687.59;20932291;28;20222;-61
2021/05/02 23:25:48;;;;;;;4.20;3.90;;;;;;;4.13;100.00;99725.84;20873459;27;20554;-64
2021/05/02 23:35:50;;;;;;;2.80;2.60;;;;;;;4.02;100.00;99725.47;20863244;28;20282;-59
2021/05/02 23:45:51;;;;;;;2.63;2.43;;;;;;;4.00;100.00;99786.25;20860519;28;20460;-69
2021/05/02 23:55:51;;;;;;;2.10;2.00;;;;;;;3.87;100.00;99756.06;20868970;28;20223;-60
